createdAt,value
2023-04-03T00:02:59.066Z,7.15
2023-04-03T00:06:00.912Z,8.10
2023-04-03T00:09:02.505Z,7.32
2023-04-03T00:12:03.610Z,7.60
2023-04-03T00:15:05.832Z,8.13
2023-04-03T00:18:08.139Z,8.68
2023-04-03T00:21:14.303Z,8.43
2023-04-03T00:24:15.034Z,7.30
2023-04-03T00:27:17.065Z,7.72
2023-04-03T00:30:21.884Z,7.22
2023-04-03T00:33:23.132Z,8.05
2023-04-03T00:36:24.633Z,7.78
2023-04-03T00:39:25.864Z,8.02
2023-04-03T00:42:26.949Z,7.55
2023-04-03T00:45:37.828Z,7.18
2023-04-03T00:48:50.120Z,7.28
2023-04-03T00:51:52.228Z,7.25
2023-04-03T00:55:01.662Z,7.32
2023-04-03T00:58:04.499Z,6.47
2023-04-03T01:01:12.217Z,6.65
2023-04-03T01:04:39.786Z,6.47
2023-04-03T01:07:41.705Z,8.70
2023-04-03T01:10:42.995Z,6.50
2023-04-03T01:13:44.777Z,6.38
2023-04-03T01:16:55.033Z,7.15
2023-04-03T01:20:33.565Z,5.80
2023-04-03T01:23:52.776Z,6.20
2023-04-03T01:26:54.215Z,6.30
2023-04-03T01:29:55.688Z,5.72
2023-04-03T01:32:56.900Z,6.30
2023-04-03T01:35:58.653Z,6.32
2023-04-03T01:39:01.858Z,5.93
2023-04-03T01:42:04.939Z,5.88
2023-04-03T01:45:11.080Z,6.15
2023-04-03T01:48:12.228Z,6.85
2023-04-03T01:51:13.828Z,6.18
2023-04-03T01:54:15.106Z,6.00
2023-04-03T01:57:16.437Z,7.75
2023-04-03T02:00:18.952Z,6.35
2023-04-03T02:03:20.166Z,6.63
2023-04-03T02:06:21.304Z,6.45
2023-04-03T02:09:22.549Z,7.10
2023-04-03T02:12:23.702Z,7.95
2023-04-03T02:15:25.488Z,6.80
2023-04-03T02:18:26.735Z,7.50
2023-04-03T02:21:27.505Z,7.25
2023-04-03T02:24:28.920Z,7.13
2023-04-03T02:27:29.798Z,7.32
2023-04-03T02:30:30.830Z,8.55
2023-04-03T02:33:32.153Z,8.52
2023-04-03T02:36:33.928Z,7.25
2023-04-03T02:39:39.143Z,7.43
2023-04-03T02:42:40.638Z,9.52
2023-04-03T02:45:41.608Z,8.05
2023-04-03T02:48:42.984Z,7.97
2023-04-03T02:51:44.961Z,8.13
2023-04-03T02:54:46.400Z,10.65
2023-04-03T02:57:47.398Z,7.93
2023-04-03T03:00:49.280Z,7.22
2023-04-03T03:03:50.723Z,8.18
2023-04-03T03:06:52.119Z,9.93
2023-04-03T03:09:53.423Z,7.97
2023-04-03T03:12:54.509Z,9.00
2023-04-03T03:15:55.968Z,8.93
2023-04-03T03:18:57.926Z,8.02
2023-04-03T03:21:59.891Z,8.40
2023-04-03T03:25:01.974Z,8.27
2023-04-03T03:28:03.286Z,10.10
2023-04-03T03:31:05.552Z,7.47
2023-04-03T03:34:07.219Z,7.70
2023-04-03T03:37:09.007Z,7.68
2023-04-03T03:40:12.392Z,7.78
2023-04-03T03:43:13.563Z,8.10
2023-04-03T03:46:14.991Z,6.47
2023-04-03T03:49:16.564Z,6.32
2023-04-03T03:52:17.735Z,5.68
2023-04-03T03:55:19.564Z,5.60
2023-04-03T03:58:25.656Z,5.82
2023-04-03T04:01:27.273Z,5.43
2023-04-03T04:04:28.332Z,4.53
2023-04-03T04:07:30.620Z,6.22
2023-04-03T04:10:32.486Z,5.47
2023-04-03T04:13:34.591Z,5.38
2023-04-03T04:16:36.043Z,5.10
2023-04-03T04:19:42.867Z,5.75
2023-04-03T04:22:44.310Z,6.18
2023-04-03T04:25:48.572Z,8.50
2023-04-03T04:28:49.744Z,5.13
2023-04-03T04:31:52.373Z,4.97
2023-04-03T04:34:53.767Z,5.40
2023-04-03T04:37:55.352Z,4.95
2023-04-03T04:40:56.628Z,5.35
2023-04-03T04:43:58.826Z,8.15
2023-04-03T04:47:01.116Z,5.40
2023-04-03T04:50:02.969Z,6.00
2023-04-03T04:53:05.479Z,5.30
2023-04-03T04:56:07.419Z,5.88
2023-04-03T04:59:10.456Z,5.80
2023-04-03T05:02:11.802Z,6.45
2023-04-03T05:05:15.219Z,6.43
2023-04-03T05:08:16.904Z,5.63
2023-04-03T05:11:18.361Z,5.88
2023-04-03T05:14:21.148Z,7.00
2023-04-03T05:17:22.688Z,5.30
2023-04-03T05:20:27.633Z,5.47
2023-04-03T05:23:28.959Z,6.15
2023-04-03T05:26:33.038Z,5.38
2023-04-03T05:29:35.906Z,4.88
2023-04-03T05:32:38.866Z,5.95
2023-04-03T05:35:57.541Z,5.65
2023-04-03T05:39:02.003Z,5.72
2023-04-03T05:42:03.334Z,5.68
2023-04-03T05:45:06.088Z,5.28
2023-04-03T05:48:07.549Z,5.32
2023-04-03T05:51:16.687Z,6.28
2023-04-03T05:54:26.918Z,6.00
2023-04-03T05:57:33.887Z,5.50
2023-04-03T06:00:35.250Z,5.70
2023-04-03T06:03:40.144Z,6.47
2023-04-03T06:06:52.737Z,5.90
2023-04-03T06:09:54.081Z,7.95
2023-04-03T06:12:55.354Z,5.97
2023-04-03T06:15:56.748Z,7.55
2023-04-03T06:18:58.351Z,5.35
2023-04-03T06:21:59.698Z,5.57
2023-04-03T06:25:00.532Z,6.55
2023-04-03T06:28:01.383Z,5.28
2023-04-03T06:31:02.855Z,5.30
2023-04-03T06:34:06.765Z,6.50
2023-04-03T06:37:17.937Z,5.45
2023-04-03T06:40:24.938Z,5.55
2023-04-03T06:43:25.945Z,5.95
2023-04-03T06:46:28.480Z,5.50
2023-04-03T06:49:30.148Z,4.95
2023-04-03T06:52:31.247Z,5.53
2023-04-03T06:55:33.140Z,6.55
2023-04-03T06:58:34.069Z,4.97
2023-04-03T07:01:35.175Z,6.35
2023-04-03T07:04:37.565Z,7.72
2023-04-03T07:07:39.044Z,5.82
2023-04-03T07:10:40.228Z,5.25
2023-04-03T07:13:42.217Z,7.45
2023-04-03T07:16:43.340Z,5.90
2023-04-03T07:19:44.940Z,7.53
2023-04-03T07:22:45.907Z,5.43
2023-04-03T07:25:48.996Z,5.40
2023-04-03T07:28:51.090Z,8.68
2023-04-03T07:31:52.094Z,7.97
2023-04-03T07:34:53.108Z,5.25
2023-04-03T07:37:54.529Z,5.20
2023-04-03T07:40:55.471Z,5.70
2023-04-03T07:43:57.795Z,6.55
2023-04-03T07:46:58.892Z,5.68
2023-04-03T07:50:00.108Z,6.60
2023-04-03T07:53:01.087Z,6.70
2023-04-03T07:56:03.913Z,5.93
2023-04-03T07:59:05.278Z,6.47
2023-04-03T08:02:06.448Z,6.90
2023-04-03T08:05:08.151Z,6.35
2023-04-03T08:08:12.228Z,6.07
2023-04-03T08:11:13.289Z,6.32
2023-04-03T08:14:18.107Z,6.22
2023-04-03T08:17:19.485Z,6.57
2023-04-03T08:20:21.513Z,6.00
2023-04-03T08:23:22.757Z,6.18
2023-04-03T08:26:23.733Z,6.32
2023-04-03T08:29:25.847Z,6.03
2023-04-03T08:32:27.064Z,6.13
2023-04-03T08:35:28.084Z,7.50
2023-04-03T08:38:29.503Z,6.88
2023-04-03T08:41:41.150Z,6.70
2023-04-03T08:45:13.936Z,6.53
2023-04-03T08:48:36.333Z,6.65
2023-04-03T08:51:50.883Z,6.15
2023-04-03T08:55:02.536Z,6.50
2023-04-03T08:58:27.248Z,6.97
2023-04-03T09:01:37.010Z,6.80
2023-04-03T09:04:39.253Z,8.05
2023-04-03T09:07:50.058Z,6.97
2023-04-03T09:11:04.547Z,5.97
2023-04-03T09:14:19.710Z,6.40
2023-04-03T09:18:05.870Z,6.32
2023-04-03T09:21:43.821Z,6.70
2023-04-03T09:25:01.990Z,6.50
2023-04-03T09:28:03.971Z,6.70
2023-04-03T09:31:24.665Z,7.40
2023-04-03T09:34:38.217Z,6.85
2023-04-03T09:37:50.636Z,5.65
2023-04-03T09:41:08.696Z,6.50
2023-04-03T09:44:26.790Z,5.18
2023-04-03T09:47:35.309Z,17.67
2023-04-03T09:50:38.510Z,5.38
2023-04-03T09:53:44.299Z,5.28
2023-04-03T09:56:52.432Z,6.13
2023-04-03T10:00:02.489Z,4.85
2023-04-03T10:03:26.250Z,5.68
2023-04-03T10:06:27.104Z,6.55
2023-04-03T10:09:34.491Z,5.70
2023-04-03T10:12:35.198Z,5.38
2023-04-03T10:15:45.378Z,6.97
2023-04-03T10:19:19.256Z,5.28
2023-04-03T10:22:51.848Z,6.15
2023-04-03T10:26:30.672Z,5.20
2023-04-03T10:30:28.686Z,4.93
2023-04-03T10:33:53.288Z,5.63
2023-04-03T10:37:23.405Z,5.57
2023-04-03T10:41:08.372Z,9.00
2023-04-03T10:44:48.304Z,5.22
2023-04-03T10:48:17.542Z,5.28
2023-04-03T10:51:38.613Z,5.20
2023-04-03T10:55:35.611Z,5.20
2023-04-03T10:58:49.917Z,5.78
2023-04-03T11:02:08.217Z,4.72
2023-04-03T11:05:42.041Z,5.05
2023-04-03T11:08:52.770Z,5.80
2023-04-03T11:12:04.620Z,5.13
2023-04-03T11:15:07.265Z,5.55
2023-04-03T11:18:15.105Z,5.18
2023-04-03T11:21:22.957Z,4.63
2023-04-03T11:24:29.844Z,7.40
2023-04-03T11:27:43.468Z,4.85
2023-04-03T11:31:21.916Z,4.88
2023-04-03T11:34:35.738Z,4.50
2023-04-03T11:37:52.308Z,4.45
2023-04-03T11:40:55.663Z,4.07
2023-04-03T11:44:00.529Z,4.25
2023-04-03T11:47:03.981Z,3.15
2023-04-03T11:50:06.536Z,3.90
2023-04-03T11:53:07.740Z,3.92
2023-04-03T11:56:28.209Z,3.80
2023-04-03T11:59:39.198Z,3.92
2023-04-03T12:02:53.806Z,3.35
2023-04-03T12:06:08.299Z,3.42
2023-04-03T12:09:24.339Z,3.40
2023-04-03T12:12:34.933Z,3.15
2023-04-03T12:15:50.688Z,3.80
2023-04-03T12:23:26.066Z,3.65
2023-04-03T12:27:00.701Z,3.53
2023-04-03T12:30:05.000Z,5.22
2023-04-03T12:33:41.708Z,3.50
2023-04-03T12:37:10.355Z,3.30
2023-04-03T12:40:32.878Z,4.82
2023-04-03T12:44:00.896Z,3.90
2023-04-03T12:47:19.380Z,7.53
2023-04-03T12:50:31.365Z,3.60
2023-04-03T12:53:39.963Z,3.72
2023-04-03T12:56:41.566Z,3.83
2023-04-03T12:59:45.010Z,2.90
2023-04-03T13:02:47.746Z,3.28
2023-04-03T13:05:48.945Z,3.45
2023-04-03T13:09:01.424Z,3.83
2023-04-03T13:12:16.501Z,3.40
2023-04-03T13:15:27.296Z,3.60
2023-04-03T13:18:35.653Z,3.15
2023-04-03T13:21:36.966Z,3.10
2023-04-03T13:24:40.759Z,3.30
2023-04-03T13:27:45.125Z,3.22
2023-04-03T13:31:06.282Z,3.22
2023-04-03T13:34:22.658Z,3.05
2023-04-03T13:37:34.947Z,3.55
2023-04-03T13:41:23.097Z,3.22
2023-04-03T13:44:24.113Z,4.80
2023-04-03T13:47:26.458Z,3.20
2023-04-03T13:50:29.755Z,4.05
2023-04-03T13:53:35.443Z,3.15
2023-04-03T13:56:43.335Z,3.10
2023-04-03T13:59:45.924Z,2.83
2023-04-03T14:02:49.764Z,3.42
2023-04-03T14:05:51.683Z,3.08
2023-04-03T14:08:54.192Z,3.53
2023-04-03T14:12:06.074Z,3.78
2023-04-03T14:15:21.197Z,5.18
2023-04-03T14:18:22.434Z,3.67
2023-04-03T14:21:24.426Z,3.60
2023-04-03T14:24:26.393Z,3.75
2023-04-03T14:27:34.198Z,3.40
2023-04-03T14:30:36.825Z,4.65
2023-04-03T14:33:39.506Z,3.47
2023-04-03T14:36:44.158Z,5.18
2023-04-03T14:39:46.528Z,3.42
2023-04-03T14:42:49.490Z,3.63
2023-04-03T14:45:52.150Z,5.75
2023-04-03T14:48:53.544Z,3.45
2023-04-03T14:51:54.701Z,4.10
2023-04-03T14:54:57.163Z,3.80
2023-04-03T14:57:58.064Z,3.30
2023-04-03T15:00:59.342Z,3.33
2023-04-03T15:04:00.398Z,4.60
2023-04-03T15:07:01.527Z,3.22
2023-04-03T15:10:22.469Z,3.80
2023-04-03T15:13:25.036Z,3.53
2023-04-03T15:16:27.047Z,3.17
2023-04-03T15:19:28.131Z,3.92
2023-04-03T15:22:28.960Z,3.42
2023-04-03T15:25:31.197Z,4.15
2023-04-03T15:28:40.634Z,3.60
2023-04-03T15:31:41.807Z,3.22
2023-04-03T15:34:43.194Z,2.92
2023-04-03T15:37:44.460Z,3.42
2023-04-03T15:40:45.320Z,3.90
2023-04-03T15:43:46.243Z,5.80
2023-04-03T15:46:50.047Z,3.50
2023-04-03T15:49:51.484Z,4.90
2023-04-03T15:52:56.221Z,3.15
2023-04-03T15:55:57.374Z,3.45
2023-04-03T15:58:58.224Z,4.63
2023-04-03T16:02:00.951Z,3.83
2023-04-03T16:05:02.704Z,4.55
2023-04-03T16:08:04.485Z,5.47
2023-04-03T16:11:05.965Z,3.65
2023-04-03T16:14:08.714Z,4.65
2023-04-03T16:17:09.619Z,3.72
2023-04-03T16:20:14.590Z,5.28
2023-04-03T16:23:15.891Z,4.78
2023-04-03T16:26:18.746Z,4.05
2023-04-03T16:29:19.519Z,4.65
2023-04-03T16:32:20.694Z,3.95
2023-04-03T16:35:21.701Z,3.95
2023-04-03T16:38:23.468Z,4.30
2023-04-03T16:41:24.397Z,4.72
2023-04-03T16:44:25.155Z,5.60
2023-04-03T16:47:26.284Z,4.35
2023-04-03T16:50:27.664Z,6.28
2023-04-03T16:53:29.658Z,5.03
2023-04-03T16:56:31.174Z,3.95
2023-04-03T16:59:32.383Z,4.63
2023-04-03T17:02:33.712Z,4.18
2023-04-03T17:05:35.764Z,3.78
2023-04-03T17:08:37.367Z,4.72
2023-04-03T17:11:39.265Z,4.55
2023-04-03T17:14:40.271Z,6.18
2023-04-03T17:17:41.328Z,3.65
2023-04-03T17:20:42.438Z,4.97
2023-04-03T17:23:50.091Z,3.63
2023-04-03T17:26:51.280Z,4.07
2023-04-03T17:29:52.315Z,4.05
2023-04-03T17:32:53.470Z,3.58
2023-04-03T17:36:02.682Z,6.45
2023-04-03T17:39:04.234Z,8.75
2023-04-03T17:42:05.256Z,3.70
2023-04-03T17:45:07.347Z,4.13
2023-04-03T17:48:08.672Z,3.92
2023-04-03T17:51:17.304Z,7.80
2023-04-03T17:54:18.578Z,4.05
2023-04-03T17:57:20.071Z,3.90
2023-04-03T18:00:21.422Z,3.65
2023-04-03T18:03:22.372Z,3.95
2023-04-03T18:06:28.957Z,4.63
2023-04-03T18:09:35.452Z,3.40
2023-04-03T18:12:37.710Z,3.30
2023-04-03T18:15:45.810Z,4.38
2023-04-03T18:18:47.589Z,4.68
2023-04-03T18:21:48.843Z,4.07
2023-04-03T18:24:52.588Z,4.55
2023-04-03T18:27:53.495Z,6.32
2023-04-03T18:30:54.511Z,3.10
2023-04-03T18:33:59.104Z,4.70
2023-04-03T18:37:00.880Z,2.95
2023-04-03T18:40:02.028Z,2.90
2023-04-03T18:43:04.119Z,6.03
2023-04-03T18:46:07.352Z,2.95
2023-04-03T18:49:10.263Z,3.88
2023-04-03T18:52:12.850Z,3.30
2023-04-03T18:55:15.932Z,3.15
2023-04-03T18:58:16.648Z,3.70
2023-04-03T19:01:19.048Z,3.35
2023-04-03T19:04:20.012Z,3.90
2023-04-03T19:07:21.483Z,3.97
2023-04-03T19:10:23.098Z,4.78
2023-04-03T19:13:24.083Z,5.18
2023-04-03T19:16:26.026Z,2.80
2023-04-03T19:19:27.250Z,5.47
2023-04-03T19:22:27.961Z,3.65
2023-04-03T19:25:28.813Z,3.75
2023-04-03T19:28:30.221Z,3.50
2023-04-03T19:31:34.037Z,3.97
2023-04-03T19:34:35.277Z,4.15
2023-04-03T19:37:36.038Z,5.20
2023-04-03T19:40:38.414Z,2.80
2023-04-03T19:43:40.255Z,3.15
2023-04-03T19:46:41.312Z,2.72
2023-04-03T19:49:52.540Z,4.15
2023-04-03T19:52:53.585Z,3.88
2023-04-03T19:55:54.556Z,3.72
2023-04-03T19:58:55.668Z,3.00
2023-04-03T20:01:57.960Z,2.50
2023-04-03T20:04:59.034Z,2.38
2023-04-03T20:08:00.136Z,2.35
2023-04-03T20:11:01.404Z,3.08
2023-04-03T20:14:02.863Z,3.00
2023-04-03T20:17:04.740Z,2.65
2023-04-03T20:20:06.917Z,2.60
2023-04-03T20:23:11.505Z,2.67
2023-04-03T20:26:23.922Z,4.22
2023-04-03T20:29:26.385Z,2.10
2023-04-03T20:32:27.949Z,2.47
2023-04-03T20:35:28.982Z,2.83
2023-04-03T20:38:30.165Z,3.53
2023-04-03T20:41:34.808Z,4.95
2023-04-03T20:44:35.929Z,3.05
2023-04-03T20:47:37.505Z,2.58
2023-04-03T20:50:38.799Z,5.78
2023-04-03T20:53:41.449Z,1.83
2023-04-03T20:56:42.873Z,5.57
2023-04-03T20:59:44.130Z,2.20
2023-04-03T21:02:46.354Z,2.75
2023-04-03T21:05:47.475Z,3.30
2023-04-03T21:09:45.023Z,2.20
2023-04-03T21:13:42.996Z,3.83
2023-04-03T21:16:43.830Z,2.83
2023-04-03T21:19:48.943Z,2.28
2023-04-03T21:22:50.493Z,2.50
2023-04-03T21:25:51.623Z,2.80
2023-04-03T21:28:53.353Z,4.95
2023-04-03T21:31:58.086Z,2.75
2023-04-03T21:34:59.121Z,2.95
2023-04-03T21:38:00.386Z,2.65
2023-04-03T21:41:01.105Z,7.72
2023-04-03T21:44:02.652Z,2.38
2023-04-03T21:47:03.775Z,2.88
2023-04-03T21:50:05.176Z,3.75
2023-04-03T21:53:06.282Z,2.40
2023-04-03T21:56:07.417Z,4.90
2023-04-03T21:59:08.604Z,3.97
2023-04-03T22:02:09.993Z,3.38
2023-04-03T22:05:11.220Z,5.07
2023-04-03T22:08:12.311Z,3.30
2023-04-03T22:11:16.696Z,4.38
2023-04-03T22:14:18.833Z,4.22
2023-04-03T22:17:19.996Z,2.72
2023-04-03T22:20:20.875Z,2.30
2023-04-03T22:23:22.595Z,2.97
2023-04-03T22:26:23.567Z,5.60
2023-04-03T22:29:24.343Z,4.15
2023-04-03T22:32:25.277Z,2.65
2023-04-03T22:35:27.628Z,3.55
2023-04-03T22:38:28.482Z,5.10
2023-04-03T22:41:29.529Z,5.47
2023-04-03T22:44:36.078Z,2.78
2023-04-03T22:47:37.560Z,2.05
2023-04-03T22:50:40.236Z,3.03
2023-04-03T22:53:41.191Z,2.83
2023-04-03T22:56:42.350Z,4.20
2023-04-03T22:59:43.276Z,4.30
2023-04-03T23:02:44.821Z,3.05
2023-04-03T23:05:46.763Z,2.65
2023-04-03T23:08:47.539Z,2.67
2023-04-03T23:11:48.428Z,5.82
2023-04-03T23:14:49.085Z,3.53
2023-04-03T23:17:50.449Z,4.18
2023-04-03T23:20:52.109Z,2.75
2023-04-03T23:23:52.868Z,4.97
2023-04-03T23:26:53.821Z,3.40
2023-04-03T23:29:54.688Z,4.93
2023-04-03T23:32:55.681Z,3.70
2023-04-03T23:35:58.712Z,2.72
2023-04-03T23:38:59.895Z,4.38
2023-04-03T23:42:00.789Z,3.00
2023-04-03T23:45:01.649Z,4.53
2023-04-03T23:48:02.572Z,3.67
2023-04-03T23:51:04.221Z,5.03
2023-04-03T23:54:05.993Z,4.95
2023-04-03T23:57:07.157Z,3.10
